Boca Raton, FL (33428)

9:06 PM EDT on July 23, 2016 (GMT -0400)
Boca (C6162) | | Change Station

Elev 12 ft 26.34 °N, 80.21 °W | Updated 14 seconds ago

Clear
Clear
82.2 °F
Feels Like 89 °F
N
2.0
Wind Variable Wind from North
Gusts 3.0 mph

Today
High -- | Low -- °F
--% Chance of Precip.
Yesterday
High -- | Low -- °F
Precip. -- in
Pressure 30.01 in
Visibility 10.0 miles
Clouds Clear
Heat Index 89 °F
Dew Point 74 °F
Humidity 77%
Rainfall 0.00 in
Snow Depth Not available.
6:41 AM 8:12 PM
Waning Gibbous, 81% visible
METAR KPMP 240053Z AUTO 12008KT 10SM CLR 28/23 A3001 RMK AO2 LTG DSNT S AND W SLP163 T02830233
Pressure 30.01 in
Visibility 10.0 miles
Clouds Clear
Heat Index 89 °F
Dew Point 74 °F
Humidity 77%
Rainfall 0.00 in
Snow Depth Not available.
6:41 AM 8:12 PM
Waning Gibbous, 81% visible
METAR KPMP 240053Z AUTO 12008KT 10SM CLR 28/23 A3001 RMK AO2 LTG DSNT S AND W SLP163 T02830233

10-Day Weather Forecast

Almanac

Astronomy

Jul. 23, 2016 Rise Set
Actual Time
Civil Twilight
Nautical Twilight
Astronomical Twilight
Moon
Length of Visible Light
Length of Day
Tomorrow will be .
, % of the Moon is Illuminated

Today's Extremes

State Highs State Lows

Community

WunderPhotos

Upload Photos

1,926,992 photos uploaded!

WunderBlog® & News

Nearby

Air Quality

  Air Quality AQ Index Pollutant
Not available.

Snow Depth

Station Depth Elevation

Earthquake Activity

City Distance Mag. Time & Date
Minimum magnitude displayed is 2.5.

Coastal Water Temperatures

Place Temperature

Stations

Nearby Weather Stations

Station Location Temp. Windchill Dew Point Humidity Wind Precip. Elev Updated Type
                   

Watches & Warnings

There are currently no watches in effect.